createdAt,value
2023-02-16T00:08:20.454Z,-2.31
2023-02-16T00:18:23.789Z,-1.85
2023-02-16T00:28:27.672Z,-2.04
2023-02-16T00:38:30.233Z,-1.95
2023-02-16T00:48:32.780Z,-1.99
2023-02-16T00:58:35.964Z,-2.02
2023-02-16T01:08:57.130Z,-2.29
2023-02-16T01:19:00.235Z,-2.75
2023-02-16T01:29:03.116Z,-2.81
2023-02-16T01:39:06.116Z,-2.61
2023-02-16T01:49:14.225Z,-2.33
2023-02-16T01:59:49.167Z,-2.71
2023-02-16T02:10:05.966Z,-2.57
2023-02-16T02:20:57.105Z,-2.51
2023-02-16T02:31:10.950Z,-2.39
2023-02-16T02:41:52.239Z,-2.49
2023-02-16T02:51:55.137Z,-2.60
2023-02-16T03:02:01.322Z,-2.84
2023-02-16T03:12:24.721Z,-2.90
2023-02-16T03:22:47.182Z,-2.98
2023-02-16T03:32:50.545Z,-3.17
2023-02-16T03:42:53.143Z,-3.31
2023-02-16T03:53:06.901Z,-3.36
2023-02-16T04:03:10.434Z,-3.39
2023-02-16T04:13:13.308Z,-3.56
2023-02-16T04:23:15.714Z,-3.37
2023-02-16T04:33:18.176Z,-3.32
2023-02-16T04:43:20.625Z,-3.32
2023-02-16T04:53:23.126Z,-3.46
2023-02-16T05:03:25.753Z,-3.42
2023-02-16T05:13:51.974Z,-3.84
2023-02-16T05:23:54.439Z,-3.62
2023-02-16T05:33:56.969Z,-3.53
2023-02-16T05:44:02.407Z,-3.71
2023-02-16T05:54:05.949Z,-3.75
2023-02-16T06:04:13.092Z,-3.68
2023-02-16T06:14:21.097Z,-3.61
2023-02-16T06:24:23.666Z,-3.56
2023-02-16T06:34:26.353Z,-3.13
2023-02-16T06:44:28.804Z,-2.88
2023-02-16T06:54:31.484Z,-2.54
2023-02-16T07:04:34.058Z,-2.21
2023-02-16T07:14:36.722Z,-2.20
2023-02-16T07:24:39.273Z,-1.65
2023-02-16T07:34:42.041Z,-1.15
2023-02-16T07:44:44.567Z,-0.83
2023-02-16T07:54:47.469Z,-0.28
2023-02-16T08:04:52.834Z,-0.35
2023-02-16T08:14:55.445Z,-0.47
2023-02-16T08:24:59.549Z,-0.72
2023-02-16T08:35:02.473Z,-0.48
2023-02-16T08:45:07.430Z,-0.34
2023-02-16T08:55:09.964Z,0.76
2023-02-16T09:05:13.533Z,1.21
2023-02-16T09:15:16.880Z,1.28
2023-02-16T09:25:19.561Z,1.10
2023-02-16T09:35:22.264Z,1.74
2023-02-16T09:45:26.915Z,2.86
2023-02-16T09:56:09.183Z,3.23
2023-02-16T10:06:31.572Z,3.33
2023-02-16T10:16:41.426Z,5.10
2023-02-16T10:26:49.139Z,5.36
2023-02-16T10:37:14.787Z,5.83
2023-02-16T10:47:33.009Z,5.46
2023-02-16T10:57:36.469Z,5.72
2023-02-16T11:08:01.693Z,7.02
2023-02-16T11:18:08.094Z,7.78
2023-02-16T11:28:12.005Z,9.59
2023-02-16T11:38:27.771Z,9.66
2023-02-16T11:48:33.511Z,9.06
2023-02-16T11:58:36.525Z,9.11
2023-02-16T12:09:00.600Z,10.42
2023-02-16T12:19:31.712Z,11.26
2023-02-16T12:29:55.032Z,12.23
2023-02-16T12:40:32.745Z,13.33
2023-02-16T12:50:39.872Z,12.81
2023-02-16T13:00:49.622Z,12.16
2023-02-16T13:11:03.402Z,12.31
2023-02-16T13:21:14.596Z,11.61
2023-02-16T13:31:40.377Z,10.98
2023-02-16T13:41:45.873Z,8.63
2023-02-16T13:51:50.045Z,8.26
2023-02-16T14:01:54.448Z,8.21
2023-02-16T14:11:57.628Z,8.10
2023-02-16T14:22:12.094Z,7.65
2023-02-16T14:32:28.528Z,7.51
2023-02-16T14:42:34.145Z,7.15
2023-02-16T14:52:37.222Z,6.86
2023-02-16T15:02:55.050Z,6.44
2023-02-16T15:12:58.456Z,5.92
2023-02-16T15:23:06.257Z,5.29
2023-02-16T15:33:31.048Z,5.11
2023-02-16T15:43:47.649Z,4.67
2023-02-16T15:53:53.484Z,4.22
2023-02-16T16:03:56.241Z,3.86
2023-02-16T16:13:59.309Z,3.52
2023-02-16T16:24:03.698Z,3.20
2023-02-16T16:34:12.486Z,2.78
2023-02-16T16:44:34.924Z,2.59
2023-02-16T16:54:39.648Z,2.43
2023-02-16T17:04:42.497Z,2.30
2023-02-16T17:14:45.224Z,1.80
2023-02-16T17:24:47.857Z,1.60
2023-02-16T17:34:50.763Z,1.29
2023-02-16T17:44:53.355Z,1.10
2023-02-16T17:54:56.161Z,0.86
2023-02-16T18:04:59.128Z,0.72
2023-02-16T18:15:02.055Z,0.57
2023-02-16T18:25:06.138Z,0.45
2023-02-16T18:35:10.814Z,0.67
2023-02-16T18:45:13.935Z,0.75
2023-02-16T18:55:17.859Z,0.44
2023-02-16T19:05:21.108Z,0.33
2023-02-16T19:15:24.228Z,0.08
2023-02-16T19:25:28.863Z,-0.16
2023-02-16T19:35:32.002Z,-0.27
2023-02-16T19:45:37.448Z,-0.47
2023-02-16T19:55:41.884Z,-0.75
2023-02-16T20:05:44.907Z,-1.15
2023-02-16T20:15:48.173Z,-1.39
2023-02-16T20:25:50.774Z,-1.72
2023-02-16T20:35:53.976Z,-1.68
2023-02-16T20:45:57.849Z,-1.78
2023-02-16T20:56:09.559Z,-1.81
2023-02-16T21:06:12.368Z,-1.90
2023-02-16T21:16:17.526Z,-2.10
2023-02-16T21:26:23.500Z,-2.10
2023-02-16T21:36:27.395Z,-1.96
2023-02-16T21:46:34.088Z,-1.89
2023-02-16T21:56:45.144Z,-1.79
2023-02-16T22:06:57.071Z,-2.06
2023-02-16T22:17:01.911Z,-2.21
2023-02-16T22:27:04.422Z,-2.25
2023-02-16T22:37:06.963Z,-2.31
2023-02-16T22:47:09.535Z,-2.54
2023-02-16T22:57:12.051Z,-2.16
2023-02-16T23:07:14.574Z,-1.91
2023-02-16T23:17:17.160Z,-1.66
2023-02-16T23:27:19.618Z,-1.78
2023-02-16T23:37:22.576Z,-1.65
2023-02-16T23:47:25.420Z,-1.61
2023-02-16T23:57:27.861Z,-1.22
